sensor_id;sensor_type;location;lat;lon;timestamp;temperature;humidity
14749;DHT22;7466;53.574;9.976;2022-12-18T00:01:03;-3.60;99.90
14749;DHT22;7466;53.574;9.976;2022-12-18T00:03:32;-3.70;99.90
14749;DHT22;7466;53.574;9.976;2022-12-18T00:05:59;-3.70;99.90
14749;DHT22;7466;53.574;9.976;2022-12-18T00:08:27;-3.70;99.90
14749;DHT22;7466;53.574;9.976;2022-12-18T00:11:03;-3.70;99.90
14749;DHT22;7466;53.574;9.976;2022-12-18T00:13:30;-3.80;99.90
14749;DHT22;7466;53.574;9.976;2022-12-18T00:16:01;-3.80;99.90
14749;DHT22;7466;53.574;9.976;2022-12-18T00:18:28;-3.80;99.90
14749;DHT22;7466;53.574;9.976;2022-12-18T00:20:58;-3.90;99.90
14749;DHT22;7466;53.574;9.976;2022-12-18T00:23:26;-3.80;99.90
14749;DHT22;7466;53.574;9.976;2022-12-18T00:25:52;-3.80;99.90
14749;DHT22;7466;53.574;9.976;2022-12-18T00:28:20;-3.90;99.90
14749;DHT22;7466;53.574;9.976;2022-12-18T00:30:47;-3.90;99.90
14749;DHT22;7466;53.574;9.976;2022-12-18T00:33:16;-3.90;99.90
14749;DHT22;7466;53.574;9.976;2022-12-18T00:35:43;-3.90;99.90
14749;DHT22;7466;53.574;9.976;2022-12-18T00:38:10;-3.80;99.90
14749;DHT22;7466;53.574;9.976;2022-12-18T00:40:37;-3.80;99.90
14749;DHT22;7466;53.574;9.976;2022-12-18T00:43:04;-3.80;99.90
14749;DHT22;7466;53.574;9.976;2022-12-18T00:45:31;-3.80;99.90
14749;DHT22;7466;53.574;9.976;2022-12-18T00:48:00;-3.80;99.90
14749;DHT22;7466;53.574;9.976;2022-12-18T00:50:29;-3.90;99.90
14749;DHT22;7466;53.574;9.976;2022-12-18T00:52:56;-3.90;99.90
14749;DHT22;7466;53.574;9.976;2022-12-18T00:55:22;-3.90;99.90
14749;DHT22;7466;53.574;9.976;2022-12-18T00:57:51;-4.00;99.90
14749;DHT22;7466;53.574;9.976;2022-12-18T01:00:18;-3.90;99.90
14749;DHT22;7466;53.574;9.976;2022-12-18T01:02:46;-4.00;99.90
14749;DHT22;7466;53.574;9.976;2022-12-18T01:05:13;-3.90;99.90
14749;DHT22;7466;53.574;9.976;2022-12-18T01:07:41;-4.00;99.90
14749;DHT22;7466;53.574;9.976;2022-12-18T01:10:10;-4.00;99.90
14749;DHT22;7466;53.574;9.976;2022-12-18T01:12:38;-4.00;99.90
14749;DHT22;7466;53.574;9.976;2022-12-18T01:15:06;-4.00;99.90
14749;DHT22;7466;53.574;9.976;2022-12-18T01:17:34;-4.00;99.90
14749;DHT22;7466;53.574;9.976;2022-12-18T01:20:03;-4.00;99.90
14749;DHT22;7466;53.574;9.976;2022-12-18T01:22:36;-4.00;99.90
14749;DHT22;7466;53.574;9.976;2022-12-18T01:25:04;-4.00;99.90
14749;DHT22;7466;53.574;9.976;2022-12-18T01:27:32;-4.00;99.90
14749;DHT22;7466;53.574;9.976;2022-12-18T01:29:59;-4.10;99.90
14749;DHT22;7466;53.574;9.976;2022-12-18T01:32:25;-4.10;99.90
14749;DHT22;7466;53.574;9.976;2022-12-18T01:34:52;-4.10;99.90
14749;DHT22;7466;53.574;9.976;2022-12-18T01:37:24;-4.10;99.90
14749;DHT22;7466;53.574;9.976;2022-12-18T01:39:52;-4.10;99.90
14749;DHT22;7466;53.574;9.976;2022-12-18T01:42:20;-4.10;99.90
14749;DHT22;7466;53.574;9.976;2022-12-18T01:44:54;-4.20;99.90
14749;DHT22;7466;53.574;9.976;2022-12-18T01:47:24;-4.20;99.90
14749;DHT22;7466;53.574;9.976;2022-12-18T01:49:53;-4.20;99.90
14749;DHT22;7466;53.574;9.976;2022-12-18T01:52:22;-4.20;99.90
14749;DHT22;7466;53.574;9.976;2022-12-18T01:54:52;-4.20;99.90
14749;DHT22;7466;53.574;9.976;2022-12-18T01:57:19;-4.30;99.90
14749;DHT22;7466;53.574;9.976;2022-12-18T01:59:49;-4.30;99.90
14749;DHT22;7466;53.574;9.976;2022-12-18T02:02:18;-4.30;99.90
14749;DHT22;7466;53.574;9.976;2022-12-18T02:04:45;-4.30;99.90
14749;DHT22;7466;53.574;9.976;2022-12-18T02:07:22;-4.30;99.90
14749;DHT22;7466;53.574;9.976;2022-12-18T02:09:58;-4.30;99.90
14749;DHT22;7466;53.574;9.976;2022-12-18T02:12:27;-4.30;99.90
14749;DHT22;7466;53.574;9.976;2022-12-18T02:15:00;-4.30;99.90
14749;DHT22;7466;53.574;9.976;2022-12-18T02:17:35;-4.30;99.90
14749;DHT22;7466;53.574;9.976;2022-12-18T02:20:09;-4.30;99.90
14749;DHT22;7466;53.574;9.976;2022-12-18T02:22:49;-4.40;99.90
14749;DHT22;7466;53.574;9.976;2022-12-18T02:25:30;-4.40;99.90
14749;DHT22;7466;53.574;9.976;2022-12-18T02:28:06;-4.40;99.90
14749;DHT22;7466;53.574;9.976;2022-12-18T02:30:37;-4.40;99.90
14749;DHT22;7466;53.574;9.976;2022-12-18T02:33:08;-4.40;99.90
14749;DHT22;7466;53.574;9.976;2022-12-18T02:35:36;-4.40;99.90
14749;DHT22;7466;53.574;9.976;2022-12-18T02:38:04;-4.50;99.90
14749;DHT22;7466;53.574;9.976;2022-12-18T02:40:31;-4.50;99.90
14749;DHT22;7466;53.574;9.976;2022-12-18T02:43:07;-4.50;99.90
14749;DHT22;7466;53.574;9.976;2022-12-18T02:45:34;-4.60;99.90
14749;DHT22;7466;53.574;9.976;2022-12-18T02:48:01;-4.50;99.90
14749;DHT22;7466;53.574;9.976;2022-12-18T02:50:32;-4.50;99.90
14749;DHT22;7466;53.574;9.976;2022-12-18T02:53:07;-4.50;99.90
14749;DHT22;7466;53.574;9.976;2022-12-18T02:55:46;-4.50;99.90
14749;DHT22;7466;53.574;9.976;2022-12-18T02:58:21;-4.50;99.90
14749;DHT22;7466;53.574;9.976;2022-12-18T03:00:57;-4.50;99.90
14749;DHT22;7466;53.574;9.976;2022-12-18T03:03:28;-4.50;99.90
14749;DHT22;7466;53.574;9.976;2022-12-18T03:05:59;-4.60;99.90
14749;DHT22;7466;53.574;9.976;2022-12-18T03:08:29;-4.60;99.90
14749;DHT22;7466;53.574;9.976;2022-12-18T03:11:00;-4.60;99.90
14749;DHT22;7466;53.574;9.976;2022-12-18T03:13:32;-4.60;99.90
14749;DHT22;7466;53.574;9.976;2022-12-18T03:16:00;-4.70;99.90
14749;DHT22;7466;53.574;9.976;2022-12-18T03:18:34;-4.70;99.90
14749;DHT22;7466;53.574;9.976;2022-12-18T03:21:05;-4.70;99.90
14749;DHT22;7466;53.574;9.976;2022-12-18T03:23:35;-4.70;99.90
14749;DHT22;7466;53.574;9.976;2022-12-18T03:26:07;-4.70;99.90
14749;DHT22;7466;53.574;9.976;2022-12-18T03:28:38;-4.70;99.90
14749;DHT22;7466;53.574;9.976;2022-12-18T03:31:07;-4.80;99.90
14749;DHT22;7466;53.574;9.976;2022-12-18T03:33:38;-4.70;99.90
14749;DHT22;7466;53.574;9.976;2022-12-18T03:36:05;-4.70;99.90
14749;DHT22;7466;53.574;9.976;2022-12-18T03:38:32;-4.80;99.90
14749;DHT22;7466;53.574;9.976;2022-12-18T03:41:03;-4.80;99.90
14749;DHT22;7466;53.574;9.976;2022-12-18T03:43:42;-4.80;99.90
14749;DHT22;7466;53.574;9.976;2022-12-18T03:46:16;-4.80;99.90
14749;DHT22;7466;53.574;9.976;2022-12-18T03:48:53;-4.80;99.90
14749;DHT22;7466;53.574;9.976;2022-12-18T03:51:26;-4.80;99.90
14749;DHT22;7466;53.574;9.976;2022-12-18T03:53:57;-4.70;99.90
14749;DHT22;7466;53.574;9.976;2022-12-18T03:56:28;-4.80;99.90
14749;DHT22;7466;53.574;9.976;2022-12-18T03:59:02;-4.80;99.90
14749;DHT22;7466;53.574;9.976;2022-12-18T04:01:33;-4.80;99.90
14749;DHT22;7466;53.574;9.976;2022-12-18T04:04:01;-4.80;99.90
14749;DHT22;7466;53.574;9.976;2022-12-18T04:06:29;-4.80;99.90
14749;DHT22;7466;53.574;9.976;2022-12-18T04:08:57;-4.80;99.90
14749;DHT22;7466;53.574;9.976;2022-12-18T04:11:24;-4.80;99.90
14749;DHT22;7466;53.574;9.976;2022-12-18T04:13:55;-4.80;99.90
14749;DHT22;7466;53.574;9.976;2022-12-18T04:16:24;-4.90;99.90
14749;DHT22;7466;53.574;9.976;2022-12-18T04:18:50;-4.90;99.90
14749;DHT22;7466;53.574;9.976;2022-12-18T04:21:18;-5.00;99.90
14749;DHT22;7466;53.574;9.976;2022-12-18T04:23:44;-5.00;99.90
14749;DHT22;7466;53.574;9.976;2022-12-18T04:26:11;-5.00;99.90
14749;DHT22;7466;53.574;9.976;2022-12-18T04:28:38;-5.10;99.90
14749;DHT22;7466;53.574;9.976;2022-12-18T04:31:05;-5.10;99.90
14749;DHT22;7466;53.574;9.976;2022-12-18T04:33:33;-5.00;99.90
14749;DHT22;7466;53.574;9.976;2022-12-18T04:36:00;-5.10;99.90
14749;DHT22;7466;53.574;9.976;2022-12-18T04:38:26;-5.10;99.90
14749;DHT22;7466;53.574;9.976;2022-12-18T04:40:53;-5.10;99.90
14749;DHT22;7466;53.574;9.976;2022-12-18T04:43:20;-5.20;99.90
14749;DHT22;7466;53.574;9.976;2022-12-18T04:45:47;-5.20;99.90
14749;DHT22;7466;53.574;9.976;2022-12-18T04:48:14;-5.20;99.90
14749;DHT22;7466;53.574;9.976;2022-12-18T04:50:42;-5.20;99.90
14749;DHT22;7466;53.574;9.976;2022-12-18T04:53:08;-5.20;99.90
14749;DHT22;7466;53.574;9.976;2022-12-18T04:55:35;-5.30;99.90
14749;DHT22;7466;53.574;9.976;2022-12-18T04:58:02;-5.30;99.90
14749;DHT22;7466;53.574;9.976;2022-12-18T05:00:28;-5.30;99.90
14749;DHT22;7466;53.574;9.976;2022-12-18T05:02:55;-5.40;99.90
14749;DHT22;7466;53.574;9.976;2022-12-18T05:05:22;-5.30;99.90
14749;DHT22;7466;53.574;9.976;2022-12-18T05:07:51;-5.30;99.90
14749;DHT22;7466;53.574;9.976;2022-12-18T05:10:17;-5.30;99.90
14749;DHT22;7466;53.574;9.976;2022-12-18T05:12:44;-5.30;99.90
14749;DHT22;7466;53.574;9.976;2022-12-18T05:15:27;-5.40;99.90
14749;DHT22;7466;53.574;9.976;2022-12-18T05:17:55;-5.40;99.90
14749;DHT22;7466;53.574;9.976;2022-12-18T05:20:22;-5.30;99.90
14749;DHT22;7466;53.574;9.976;2022-12-18T05:22:51;-5.30;99.90
14749;DHT22;7466;53.574;9.976;2022-12-18T05:25:18;-5.30;99.90
14749;DHT22;7466;53.574;9.976;2022-12-18T05:27:47;-5.40;99.90
14749;DHT22;7466;53.574;9.976;2022-12-18T05:30:15;-5.40;99.90
14749;DHT22;7466;53.574;9.976;2022-12-18T05:32:42;-5.30;99.90
14749;DHT22;7466;53.574;9.976;2022-12-18T05:35:10;-5.40;99.90
14749;DHT22;7466;53.574;9.976;2022-12-18T05:37:39;-5.40;99.90
14749;DHT22;7466;53.574;9.976;2022-12-18T05:40:11;-5.30;99.90
14749;DHT22;7466;53.574;9.976;2022-12-18T05:42:38;-5.40;99.90
14749;DHT22;7466;53.574;9.976;2022-12-18T05:45:06;-5.30;99.90
14749;DHT22;7466;53.574;9.976;2022-12-18T05:47:33;-5.30;99.90
14749;DHT22;7466;53.574;9.976;2022-12-18T05:50:00;-5.40;99.90
14749;DHT22;7466;53.574;9.976;2022-12-18T05:52:27;-5.40;99.90
14749;DHT22;7466;53.574;9.976;2022-12-18T05:54:54;-5.40;99.90
14749;DHT22;7466;53.574;9.976;2022-12-18T05:57:22;-5.40;99.90
14749;DHT22;7466;53.574;9.976;2022-12-18T05:59:49;-5.30;99.90
14749;DHT22;7466;53.574;9.976;2022-12-18T06:02:15;-5.40;99.90
14749;DHT22;7466;53.574;9.976;2022-12-18T06:04:42;-5.40;99.90
14749;DHT22;7466;53.574;9.976;2022-12-18T06:07:09;-5.40;99.90
14749;DHT22;7466;53.574;9.976;2022-12-18T06:09:35;-5.40;99.90
14749;DHT22;7466;53.574;9.976;2022-12-18T06:12:03;-5.40;99.90
14749;DHT22;7466;53.574;9.976;2022-12-18T06:14:31;-5.30;99.90
14749;DHT22;7466;53.574;9.976;2022-12-18T06:16:57;-5.40;99.90
14749;DHT22;7466;53.574;9.976;2022-12-18T06:19:24;-5.40;99.90
14749;DHT22;7466;53.574;9.976;2022-12-18T06:21:51;-5.40;99.90
14749;DHT22;7466;53.574;9.976;2022-12-18T06:24:18;-5.40;99.90
14749;DHT22;7466;53.574;9.976;2022-12-18T06:26:45;-5.40;99.90
14749;DHT22;7466;53.574;9.976;2022-12-18T06:29:12;-5.50;99.90
14749;DHT22;7466;53.574;9.976;2022-12-18T06:31:40;-5.50;99.90
14749;DHT22;7466;53.574;9.976;2022-12-18T06:34:07;-5.50;99.90
14749;DHT22;7466;53.574;9.976;2022-12-18T06:36:34;-5.40;99.90
14749;DHT22;7466;53.574;9.976;2022-12-18T06:39:00;-5.40;99.90
14749;DHT22;7466;53.574;9.976;2022-12-18T06:41:27;-5.50;99.90
14749;DHT22;7466;53.574;9.976;2022-12-18T06:43:54;-5.40;99.90
14749;DHT22;7466;53.574;9.976;2022-12-18T06:46:21;-5.40;99.90
14749;DHT22;7466;53.574;9.976;2022-12-18T06:48:50;-5.50;99.90
14749;DHT22;7466;53.574;9.976;2022-12-18T06:51:20;-5.40;99.90
14749;DHT22;7466;53.574;9.976;2022-12-18T06:53:48;-5.40;99.90
14749;DHT22;7466;53.574;9.976;2022-12-18T06:56:15;-5.50;99.90
14749;DHT22;7466;53.574;9.976;2022-12-18T06:58:43;-5.50;99.90
14749;DHT22;7466;53.574;9.976;2022-12-18T07:01:10;-5.40;99.90
14749;DHT22;7466;53.574;9.976;2022-12-18T07:03:38;-5.40;99.90
14749;DHT22;7466;53.574;9.976;2022-12-18T07:06:11;-5.50;99.90
14749;DHT22;7466;53.574;9.976;2022-12-18T07:08:38;-5.50;99.90
14749;DHT22;7466;53.574;9.976;2022-12-18T07:11:05;-5.50;99.90
14749;DHT22;7466;53.574;9.976;2022-12-18T07:13:32;-5.50;99.90
14749;DHT22;7466;53.574;9.976;2022-12-18T07:16:04;-5.50;99.90
14749;DHT22;7466;53.574;9.976;2022-12-18T07:18:31;-5.50;99.90
14749;DHT22;7466;53.574;9.976;2022-12-18T07:20:58;-5.50;99.90
14749;DHT22;7466;53.574;9.976;2022-12-18T07:23:29;-5.60;99.90
14749;DHT22;7466;53.574;9.976;2022-12-18T07:26:01;-5.60;99.90
14749;DHT22;7466;53.574;9.976;2022-12-18T07:28:38;-5.60;99.90
14749;DHT22;7466;53.574;9.976;2022-12-18T07:31:07;-5.60;99.90
14749;DHT22;7466;53.574;9.976;2022-12-18T07:33:34;-5.50;99.90
14749;DHT22;7466;53.574;9.976;2022-12-18T07:36:02;-5.50;99.90
14749;DHT22;7466;53.574;9.976;2022-12-18T07:38:31;-5.50;99.90
14749;DHT22;7466;53.574;9.976;2022-12-18T07:41:00;-5.50;99.90
14749;DHT22;7466;53.574;9.976;2022-12-18T07:43:27;-5.50;99.90
14749;DHT22;7466;53.574;9.976;2022-12-18T07:45:55;-5.50;99.90
14749;DHT22;7466;53.574;9.976;2022-12-18T07:48:22;-5.40;99.90
14749;DHT22;7466;53.574;9.976;2022-12-18T07:50:48;-5.40;99.90
14749;DHT22;7466;53.574;9.976;2022-12-18T07:53:15;-5.40;99.90
14749;DHT22;7466;53.574;9.976;2022-12-18T07:55:44;-5.40;99.90
14749;DHT22;7466;53.574;9.976;2022-12-18T07:58:14;-5.40;99.90
14749;DHT22;7466;53.574;9.976;2022-12-18T08:00:41;-5.40;99.90
14749;DHT22;7466;53.574;9.976;2022-12-18T08:03:08;-5.40;99.90
14749;DHT22;7466;53.574;9.976;2022-12-18T08:05:35;-5.40;99.90
14749;DHT22;7466;53.574;9.976;2022-12-18T08:08:02;-5.40;99.90
14749;DHT22;7466;53.574;9.976;2022-12-18T08:10:31;-5.30;99.90
14749;DHT22;7466;53.574;9.976;2022-12-18T08:13:01;-5.30;99.90
14749;DHT22;7466;53.574;9.976;2022-12-18T08:15:28;-5.30;99.90
14749;DHT22;7466;53.574;9.976;2022-12-18T08:17:56;-5.30;99.90
14749;DHT22;7466;53.574;9.976;2022-12-18T08:20:23;-5.30;99.90
14749;DHT22;7466;53.574;9.976;2022-12-18T08:22:49;-5.20;99.90
14749;DHT22;7466;53.574;9.976;2022-12-18T08:25:16;-5.10;99.90
14749;DHT22;7466;53.574;9.976;2022-12-18T08:27:43;-5.10;99.90
14749;DHT22;7466;53.574;9.976;2022-12-18T08:30:12;-5.00;99.90
14749;DHT22;7466;53.574;9.976;2022-12-18T08:32:39;-5.00;99.90
14749;DHT22;7466;53.574;9.976;2022-12-18T08:35:06;-5.00;99.90
14749;DHT22;7466;53.574;9.976;2022-12-18T08:37:33;-4.90;99.90
14749;DHT22;7466;53.574;9.976;2022-12-18T08:40:00;-4.90;99.90
14749;DHT22;7466;53.574;9.976;2022-12-18T08:42:34;-4.90;99.90
14749;DHT22;7466;53.574;9.976;2022-12-18T08:45:20;-4.80;99.90
14749;DHT22;7466;53.574;9.976;2022-12-18T08:47:47;-4.80;99.90
14749;DHT22;7466;53.574;9.976;2022-12-18T08:50:14;-4.80;99.90
14749;DHT22;7466;53.574;9.976;2022-12-18T08:52:40;-4.80;99.90
14749;DHT22;7466;53.574;9.976;2022-12-18T08:55:08;-4.80;99.90
14749;DHT22;7466;53.574;9.976;2022-12-18T08:57:35;-4.80;99.90
14749;DHT22;7466;53.574;9.976;2022-12-18T09:00:03;-4.70;99.90
14749;DHT22;7466;53.574;9.976;2022-12-18T09:02:31;-4.70;99.90
14749;DHT22;7466;53.574;9.976;2022-12-18T09:04:58;-4.70;99.90
14749;DHT22;7466;53.574;9.976;2022-12-18T09:07:25;-4.70;99.90
14749;DHT22;7466;53.574;9.976;2022-12-18T09:09:53;-4.60;99.90
14749;DHT22;7466;53.574;9.976;2022-12-18T09:12:20;-4.60;99.90
14749;DHT22;7466;53.574;9.976;2022-12-18T09:14:47;-4.60;99.90
14749;DHT22;7466;53.574;9.976;2022-12-18T09:17:14;-4.60;99.90
14749;DHT22;7466;53.574;9.976;2022-12-18T09:19:43;-4.50;99.90
14749;DHT22;7466;53.574;9.976;2022-12-18T09:22:09;-4.50;99.90
14749;DHT22;7466;53.574;9.976;2022-12-18T09:24:36;-4.40;99.90
14749;DHT22;7466;53.574;9.976;2022-12-18T09:27:03;-4.40;99.90
14749;DHT22;7466;53.574;9.976;2022-12-18T09:29:33;-4.30;99.90
14749;DHT22;7466;53.574;9.976;2022-12-18T09:31:59;-4.30;99.90
14749;DHT22;7466;53.574;9.976;2022-12-18T09:34:28;-4.30;99.90
14749;DHT22;7466;53.574;9.976;2022-12-18T09:36:56;-4.20;99.50
14749;DHT22;7466;53.574;9.976;2022-12-18T09:39:23;-4.20;96.80
14749;DHT22;7466;53.574;9.976;2022-12-18T09:41:52;-4.20;98.50
14749;DHT22;7466;53.574;9.976;2022-12-18T09:44:23;-4.10;96.90
14749;DHT22;7466;53.574;9.976;2022-12-18T09:46:59;-4.00;97.10
14749;DHT22;7466;53.574;9.976;2022-12-18T09:49:30;-3.90;84.80
14749;DHT22;7466;53.574;9.976;2022-12-18T09:52:04;-3.80;78.90
14749;DHT22;7466;53.574;9.976;2022-12-18T09:54:38;-3.80;68.70
14749;DHT22;7466;53.574;9.976;2022-12-18T09:57:14;-3.70;59.60
14749;DHT22;7466;53.574;9.976;2022-12-18T09:59:48;-3.70;56.80
14749;DHT22;7466;53.574;9.976;2022-12-18T10:02:18;-3.70;51.40
14749;DHT22;7466;53.574;9.976;2022-12-18T10:04:55;-3.70;50.70
14749;DHT22;7466;53.574;9.976;2022-12-18T10:07:37;-3.60;50.40
14749;DHT22;7466;53.574;9.976;2022-12-18T10:10:14;-3.50;50.60
14749;DHT22;7466;53.574;9.976;2022-12-18T10:12:50;-3.50;48.50
14749;DHT22;7466;53.574;9.976;2022-12-18T10:15:23;-3.30;48.00
14749;DHT22;7466;53.574;9.976;2022-12-18T10:17:54;-3.30;39.40
14749;DHT22;7466;53.574;9.976;2022-12-18T10:20:29;-3.20;37.10
14749;DHT22;7466;53.574;9.976;2022-12-18T10:23:08;-3.20;36.50
14749;DHT22;7466;53.574;9.976;2022-12-18T10:25:41;-3.10;32.00
14749;DHT22;7466;53.574;9.976;2022-12-18T10:28:13;-3.00;26.70
14749;DHT22;7466;53.574;9.976;2022-12-18T10:30:41;-2.90;23.80
14749;DHT22;7466;53.574;9.976;2022-12-18T10:33:10;-2.70;22.60
14749;DHT22;7466;53.574;9.976;2022-12-18T10:35:41;-2.70;13.80
14749;DHT22;7466;53.574;9.976;2022-12-18T10:38:23;-2.60;12.90
14749;DHT22;7466;53.574;9.976;2022-12-18T10:40:52;-2.50;10.60
14749;DHT22;7466;53.574;9.976;2022-12-18T10:43:22;-2.40;6.90
14749;DHT22;7466;53.574;9.976;2022-12-18T10:46:00;-2.40;4.50
14749;DHT22;7466;53.574;9.976;2022-12-18T10:48:28;-2.30;6.10
14749;DHT22;7466;53.574;9.976;2022-12-18T10:50:55;-2.20;2.80
14749;DHT22;7466;53.574;9.976;2022-12-18T10:53:26;-2.00;1.00
14749;DHT22;7466;53.574;9.976;2022-12-18T10:55:55;-2.00;1.00
14749;DHT22;7466;53.574;9.976;2022-12-18T10:58:26;-2.00;1.00
14749;DHT22;7466;53.574;9.976;2022-12-18T11:01:13;-2.00;1.00
14749;DHT22;7466;53.574;9.976;2022-12-18T11:03:43;-1.80;1.00
14749;DHT22;7466;53.574;9.976;2022-12-18T11:06:12;-1.90;1.00
14749;DHT22;7466;53.574;9.976;2022-12-18T11:08:42;-1.90;1.00
14749;DHT22;7466;53.574;9.976;2022-12-18T11:11:19;-1.80;1.00
14749;DHT22;7466;53.574;9.976;2022-12-18T11:13:58;-1.60;1.00
14749;DHT22;7466;53.574;9.976;2022-12-18T11:16:26;-1.60;1.00
14749;DHT22;7466;53.574;9.976;2022-12-18T11:18:53;-1.70;1.00
14749;DHT22;7466;53.574;9.976;2022-12-18T11:21:20;-1.70;1.00
14749;DHT22;7466;53.574;9.976;2022-12-18T11:23:50;-1.80;1.00
14749;DHT22;7466;53.574;9.976;2022-12-18T11:26:18;-1.90;1.00
14749;DHT22;7466;53.574;9.976;2022-12-18T11:28:47;-2.00;1.00
14749;DHT22;7466;53.574;9.976;2022-12-18T11:31:22;-2.00;1.00
14749;DHT22;7466;53.574;9.976;2022-12-18T11:33:54;-2.10;1.00
14749;DHT22;7466;53.574;9.976;2022-12-18T11:36:23;-2.10;1.00
14749;DHT22;7466;53.574;9.976;2022-12-18T11:38:54;-2.20;1.00
14749;DHT22;7466;53.574;9.976;2022-12-18T11:41:27;-2.20;1.00
14749;DHT22;7466;53.574;9.976;2022-12-18T11:44:11;-2.20;3.00
14749;DHT22;7466;53.574;9.976;2022-12-18T11:46:45;-2.10;3.10
14749;DHT22;7466;53.574;9.976;2022-12-18T11:49:17;-2.10;1.00
14749;DHT22;7466;53.574;9.976;2022-12-18T11:51:50;-2.10;1.00
14749;DHT22;7466;53.574;9.976;2022-12-18T11:54:21;-2.30;1.00
14749;DHT22;7466;53.574;9.976;2022-12-18T11:56:50;-2.30;1.40
14749;DHT22;7466;53.574;9.976;2022-12-18T11:59:27;-2.30;3.70
14749;DHT22;7466;53.574;9.976;2022-12-18T12:02:10;-2.30;5.60
14749;DHT22;7466;53.574;9.976;2022-12-18T12:04:53;-2.30;3.40
14749;DHT22;7466;53.574;9.976;2022-12-18T12:07:31;-2.40;10.10
14749;DHT22;7466;53.574;9.976;2022-12-18T12:10:12;-2.50;13.90
14749;DHT22;7466;53.574;9.976;2022-12-18T12:12:55;-2.40;17.90
14749;DHT22;7466;53.574;9.976;2022-12-18T12:15:33;-2.40;16.50
14749;DHT22;7466;53.574;9.976;2022-12-18T12:18:08;-2.30;15.90
14749;DHT22;7466;53.574;9.976;2022-12-18T12:20:47;-2.40;14.70
14749;DHT22;7466;53.574;9.976;2022-12-18T12:23:23;-2.30;14.80
14749;DHT22;7466;53.574;9.976;2022-12-18T12:25:58;-2.30;11.90
14749;DHT22;7466;53.574;9.976;2022-12-18T12:28:36;-2.30;12.20
14749;DHT22;7466;53.574;9.976;2022-12-18T12:31:15;-2.20;8.90
14749;DHT22;7466;53.574;9.976;2022-12-18T12:33:49;-2.20;11.40
14749;DHT22;7466;53.574;9.976;2022-12-18T12:36:25;-2.20;10.10
14749;DHT22;7466;53.574;9.976;2022-12-18T12:38:58;-2.20;8.00
14749;DHT22;7466;53.574;9.976;2022-12-18T12:41:32;-2.20;6.20
14749;DHT22;7466;53.574;9.976;2022-12-18T12:44:23;-2.20;9.30
14749;DHT22;7466;53.574;9.976;2022-12-18T12:46:52;-2.10;12.30
14749;DHT22;7466;53.574;9.976;2022-12-18T12:49:27;-2.00;8.10
14749;DHT22;7466;53.574;9.976;2022-12-18T12:52:04;-2.00;4.50
14749;DHT22;7466;53.574;9.976;2022-12-18T12:54:32;-1.90;1.00
14749;DHT22;7466;53.574;9.976;2022-12-18T12:57:05;-1.80;1.00
14749;DHT22;7466;53.574;9.976;2022-12-18T12:59:45;-1.80;1.00
14749;DHT22;7466;53.574;9.976;2022-12-18T13:02:20;-1.80;1.00
14749;DHT22;7466;53.574;9.976;2022-12-18T13:04:52;-1.80;1.00
14749;DHT22;7466;53.574;9.976;2022-12-18T13:07:24;-1.90;1.00
14749;DHT22;7466;53.574;9.976;2022-12-18T13:10:24;-1.80;1.00
14749;DHT22;7466;53.574;9.976;2022-12-18T13:12:57;-1.80;1.00
14749;DHT22;7466;53.574;9.976;2022-12-18T13:15:26;-1.80;1.00
14749;DHT22;7466;53.574;9.976;2022-12-18T13:18:05;-1.60;1.00
14749;DHT22;7466;53.574;9.976;2022-12-18T13:20:36;-1.50;1.00
14749;DHT22;7466;53.574;9.976;2022-12-18T13:23:23;-1.50;1.00
14749;DHT22;7466;53.574;9.976;2022-12-18T13:25:53;-1.70;1.00
14749;DHT22;7466;53.574;9.976;2022-12-18T13:28:23;-1.90;1.00
14749;DHT22;7466;53.574;9.976;2022-12-18T13:30:55;-2.10;1.00
14749;DHT22;7466;53.574;9.976;2022-12-18T13:33:49;-2.20;1.00
14749;DHT22;7466;53.574;9.976;2022-12-18T13:36:28;-2.20;1.00
14749;DHT22;7466;53.574;9.976;2022-12-18T13:41:53;-2.40;1.00
14749;DHT22;7466;53.574;9.976;2022-12-18T13:48:21;-2.40;6.80
14749;DHT22;7466;53.574;9.976;2022-12-18T13:50:53;-2.40;6.50
14749;DHT22;7466;53.574;9.976;2022-12-18T13:53:26;-2.40;8.60
14749;DHT22;7466;53.574;9.976;2022-12-18T13:55:53;-2.40;12.10
14749;DHT22;7466;53.574;9.976;2022-12-18T13:58:20;-2.50;12.70
14749;DHT22;7466;53.574;9.976;2022-12-18T14:00:48;-2.50;14.30
14749;DHT22;7466;53.574;9.976;2022-12-18T14:03:19;-2.50;18.10
14749;DHT22;7466;53.574;9.976;2022-12-18T14:05:46;-2.60;22.10
14749;DHT22;7466;53.574;9.976;2022-12-18T14:08:18;-2.60;24.10
14749;DHT22;7466;53.574;9.976;2022-12-18T14:10:47;-2.60;25.20
14749;DHT22;7466;53.574;9.976;2022-12-18T14:13:17;-2.70;28.10
14749;DHT22;7466;53.574;9.976;2022-12-18T14:15:48;-2.60;31.40
14749;DHT22;7466;53.574;9.976;2022-12-18T14:18:20;-2.70;34.60
14749;DHT22;7466;53.574;9.976;2022-12-18T14:20:49;-2.80;39.70
14749;DHT22;7466;53.574;9.976;2022-12-18T14:23:28;-2.80;46.90
14749;DHT22;7466;53.574;9.976;2022-12-18T14:25:55;-2.80;49.60
14749;DHT22;7466;53.574;9.976;2022-12-18T14:28:22;-2.80;54.10
14749;DHT22;7466;53.574;9.976;2022-12-18T14:30:50;-2.80;60.10
14749;DHT22;7466;53.574;9.976;2022-12-18T14:33:18;-2.90;67.10
14749;DHT22;7466;53.574;9.976;2022-12-18T14:35:55;-2.90;73.70
14749;DHT22;7466;53.574;9.976;2022-12-18T14:38:25;-3.00;81.00
14749;DHT22;7466;53.574;9.976;2022-12-18T14:41:00;-3.00;84.50
14749;DHT22;7466;53.574;9.976;2022-12-18T14:43:28;-3.00;85.10
14749;DHT22;7466;53.574;9.976;2022-12-18T14:45:57;-3.00;89.20
14749;DHT22;7466;53.574;9.976;2022-12-18T14:48:37;-3.00;88.70
14749;DHT22;7466;53.574;9.976;2022-12-18T14:51:05;-3.00;90.10
14749;DHT22;7466;53.574;9.976;2022-12-18T14:53:36;-3.00;92.10
14749;DHT22;7466;53.574;9.976;2022-12-18T14:56:04;-3.00;92.90
14749;DHT22;7466;53.574;9.976;2022-12-18T14:58:38;-3.00;88.50
14749;DHT22;7466;53.574;9.976;2022-12-18T15:01:07;-3.10;91.70
14749;DHT22;7466;53.574;9.976;2022-12-18T15:03:33;-3.10;91.00
14749;DHT22;7466;53.574;9.976;2022-12-18T15:06:15;-3.10;92.40
14749;DHT22;7466;53.574;9.976;2022-12-18T15:08:42;-3.20;94.70
14749;DHT22;7466;53.574;9.976;2022-12-18T15:11:26;-3.20;97.90
14749;DHT22;7466;53.574;9.976;2022-12-18T15:13:53;-3.20;99.90
14749;DHT22;7466;53.574;9.976;2022-12-18T15:16:21;-3.20;99.90
14749;DHT22;7466;53.574;9.976;2022-12-18T15:18:48;-3.30;99.90
14749;DHT22;7466;53.574;9.976;2022-12-18T15:21:18;-3.20;99.90
14749;DHT22;7466;53.574;9.976;2022-12-18T15:23:49;-3.30;99.90
14749;DHT22;7466;53.574;9.976;2022-12-18T15:26:18;-3.20;99.90
14749;DHT22;7466;53.574;9.976;2022-12-18T15:28:47;-3.30;99.90
14749;DHT22;7466;53.574;9.976;2022-12-18T15:31:29;-3.30;99.90
14749;DHT22;7466;53.574;9.976;2022-12-18T15:34:05;-3.30;99.90
14749;DHT22;7466;53.574;9.976;2022-12-18T15:36:36;-3.30;99.90
14749;DHT22;7466;53.574;9.976;2022-12-18T15:39:03;-3.30;99.90
14749;DHT22;7466;53.574;9.976;2022-12-18T15:41:32;-3.30;99.90
14749;DHT22;7466;53.574;9.976;2022-12-18T15:44:02;-3.30;99.90
14749;DHT22;7466;53.574;9.976;2022-12-18T15:46:30;-3.30;99.90
14749;DHT22;7466;53.574;9.976;2022-12-18T15:48:57;-3.30;99.90
14749;DHT22;7466;53.574;9.976;2022-12-18T15:51:27;-3.30;99.90
14749;DHT22;7466;53.574;9.976;2022-12-18T15:53:56;-3.30;99.90
14749;DHT22;7466;53.574;9.976;2022-12-18T15:56:25;-3.30;99.90
14749;DHT22;7466;53.574;9.976;2022-12-18T15:59:11;-3.30;99.90
14749;DHT22;7466;53.574;9.976;2022-12-18T16:01:40;-3.30;99.90
14749;DHT22;7466;53.574;9.976;2022-12-18T16:04:10;-3.30;99.90
14749;DHT22;7466;53.574;9.976;2022-12-18T16:06:38;-3.30;99.90
14749;DHT22;7466;53.574;9.976;2022-12-18T16:09:05;-3.30;99.90
14749;DHT22;7466;53.574;9.976;2022-12-18T16:11:33;-3.30;99.90
14749;DHT22;7466;53.574;9.976;2022-12-18T16:14:15;-3.30;99.90